Time;durP1;ratioP1;P1;durP2;ratioP2;P2;SDS_P1;SDS_P2;PMS_P1;PMS_P2;Temp;Humidity;BMP_temperature;BMP_pressure;BME280_temperature;BME280_humidity;BME280_pressure;Samples;Min_cycle;Max_cycle;Signal;HPM_P1;HPM_P2
2021/05/23 00:04:20;;;;;;;13.55;10.43;;;9.40;99.90;;;;;;12111997;28;20080;-82
2021/05/23 00:10:24;;;;;;;11.52;9.65;;;9.30;99.90;;;;;;12134491;28;20558;-82
2021/05/23 00:16:26;;;;;;;12.75;10.82;;;9.30;99.90;;;;;;12115544;28;20078;-81
2021/05/23 00:22:28;;;;;;;13.15;10.43;;;9.30;99.90;;;;;;12133676;28;20079;-81
2021/05/23 00:28:31;;;;;;;17.25;12.30;;;9.30;99.90;;;;;;12150311;28;20049;-81
2021/05/23 00:34:33;;;;;;;16.58;12.85;;;9.30;99.90;;;;;;12126584;28;20044;-81
2021/05/23 00:40:36;;;;;;;16.67;13.10;;;9.30;99.90;;;;;;12137376;28;20410;-81
2021/05/23 00:46:38;;;;;;;17.83;13.93;;;9.30;99.90;;;;;;12145227;28;20488;-80
2021/05/23 00:52:39;;;;;;;18.13;13.52;;;9.30;99.90;;;;;;12129889;28;20164;-80
2021/05/23 00:58:41;;;;;;;19.02;16.02;;;9.20;99.90;;;;;;12120475;28;20093;-81
2021/05/23 01:04:43;;;;;;;21.15;16.20;;;9.30;99.90;;;;;;12130444;28;20159;-81
2021/05/23 01:10:56;;;;;;;24.83;16.20;;;9.30;99.90;;;;;;12132969;28;20095;-79
2021/05/23 01:16:58;;;;;;;23.63;16.85;;;9.30;99.90;;;;;;12123825;28;20136;-81
2021/05/23 01:23:21;;;;;;;12.10;8.50;;;9.30;99.90;;;;;;12149354;28;20516;-84
2021/05/23 01:29:23;;;;;;;9.02;5.78;;;9.60;99.90;;;;;;12151895;28;20351;-82
2021/05/23 01:35:32;;;;;;;7.63;4.50;;;9.60;99.90;;;;;;12127624;28;20125;-83
2021/05/23 01:41:36;;;;;;;7.45;3.60;;;9.60;99.90;;;;;;12145556;28;20343;-83
2021/05/23 01:47:39;;;;;;;6.95;4.22;;;9.50;99.90;;;;;;12141458;28;20107;-82
2021/05/23 01:53:42;;;;;;;7.80;4.18;;;9.40;99.90;;;;;;12128252;28;20087;-82
2021/05/23 01:59:43;;;;;;;9.00;5.68;;;9.50;99.90;;;;;;12118360;28;20137;-82
2021/05/23 02:05:49;;;;;;;6.22;4.78;;;9.40;99.90;;;;;;12127289;28;20049;-81
2021/05/23 02:11:55;;;;;;;7.63;5.20;;;9.30;99.90;;;;;;12119407;28;20128;-80
2021/05/23 02:17:57;;;;;;;7.30;4.80;;;9.30;99.90;;;;;;12136081;28;20053;-82
2021/05/23 02:23:59;;;;;;;10.20;6.13;;;9.30;99.90;;;;;;12134810;28;20103;-82
2021/05/23 02:30:01;;;;;;;10.32;6.72;;;9.20;99.90;;;;;;12134363;28;20084;-81
2021/05/23 02:36:03;;;;;;;10.85;7.60;;;8.90;99.90;;;;;;12137211;28;20337;-81
2021/05/23 02:42:06;;;;;;;11.50;7.65;;;8.80;99.90;;;;;;12132099;28;20052;-80
2021/05/23 02:48:08;;;;;;;12.85;8.38;;;8.80;99.90;;;;;;12143196;28;20830;-81
2021/05/23 02:54:09;;;;;;;15.95;9.05;;;8.80;99.90;;;;;;12130365;28;20077;-81
2021/05/23 03:00:17;;;;;;;17.92;9.20;;;8.90;99.90;;;;;;12128554;28;20128;-82
2021/05/23 03:06:19;;;;;;;13.93;9.45;;;8.70;99.90;;;;;;12138469;28;20112;-82
2021/05/23 03:12:21;;;;;;;13.20;9.48;;;8.70;99.90;;;;;;12142193;28;20466;-82
2021/05/23 03:18:23;;;;;;;14.57;9.90;;;8.90;99.90;;;;;;12156453;28;20411;-81
2021/05/23 03:24:25;;;;;;;15.75;10.35;;;8.80;99.90;;;;;;12147219;28;20171;-82
2021/05/23 03:30:32;;;;;;;13.70;10.05;;;8.60;99.90;;;;;;12132545;28;20097;-82
2021/05/23 03:36:34;;;;;;;15.48;10.13;;;8.50;99.90;;;;;;12141213;28;20057;-80
2021/05/23 03:42:36;;;;;;;14.23;9.85;;;8.60;99.90;;;;;;12126097;28;20055;-80
2021/05/23 03:48:37;;;;;;;17.98;10.27;;;8.50;99.90;;;;;;12120950;28;20163;-81
2021/05/23 03:54:39;;;;;;;15.73;10.05;;;8.50;99.90;;;;;;12115963;28;20124;-81
2021/05/23 04:00:41;;;;;;;13.40;9.55;;;8.60;99.90;;;;;;12130712;28;20151;-81
2021/05/23 04:06:43;;;;;;;17.65;9.93;;;8.60;99.90;;;;;;12133431;28;20065;-81
2021/05/23 04:12:48;;;;;;;13.95;9.13;;;8.60;99.90;;;;;;12136765;28;20071;-80
2021/05/23 04:18:50;;;;;;;14.95;8.98;;;8.70;99.90;;;;;;12132535;28;20173;-81
2021/05/23 04:24:52;;;;;;;13.30;9.50;;;8.80;99.90;;;;;;12136516;28;20053;-80
2021/05/23 04:30:56;;;;;;;14.07;8.90;;;8.70;99.90;;;;;;12115164;28;20469;-79
2021/05/23 04:36:58;;;;;;;17.13;9.80;;;8.70;99.90;;;;;;12122250;28;20540;-81
2021/05/23 04:43:00;;;;;;;14.35;9.45;;;8.60;99.90;;;;;;12134999;28;20099;-82
2021/05/23 04:49:05;;;;;;;18.35;9.80;;;8.70;99.90;;;;;;12121996;28;20115;-80
2021/05/23 04:55:08;;;;;;;17.85;10.63;;;8.80;99.90;;;;;;12117212;28;20632;-81
2021/05/23 05:01:10;;;;;;;16.30;10.52;;;8.70;99.90;;;;;;12131151;28;20049;-81
2021/05/23 05:07:12;;;;;;;19.50;11.40;;;8.80;99.90;;;;;;12120467;28;20041;-79
2021/05/23 05:13:14;;;;;;;18.48;12.05;;;8.80;99.90;;;;;;12128387;28;20507;-80
2021/05/23 05:19:16;;;;;;;15.93;11.35;;;8.90;99.90;;;;;;12140861;28;20053;-81
2021/05/23 05:25:18;;;;;;;17.77;11.30;;;8.90;99.90;;;;;;12146665;28;20387;-80
2021/05/23 05:31:20;;;;;;;17.98;11.63;;;9.00;99.90;;;;;;12129177;28;20092;-80
2021/05/23 05:37:26;;;;;;;16.83;11.05;;;9.00;99.90;;;;;;12137209;28;20057;-81
2021/05/23 05:43:28;;;;;;;17.38;11.55;;;9.00;99.90;;;;;;12145964;28;20056;-80
2021/05/23 05:49:31;;;;;;;19.73;11.43;;;9.00;99.90;;;;;;12124354;28;20049;-78
2021/05/23 05:55:32;;;;;;;17.08;11.57;;;9.10;99.90;;;;;;12111105;28;20057;-80
2021/05/23 06:01:34;;;;;;;15.68;10.60;;;9.10;99.90;;;;;;12122175;28;20055;-79
2021/05/23 06:07:36;;;;;;;15.20;11.30;;;9.20;99.90;;;;;;12123058;28;20421;-80
2021/05/23 06:13:38;;;;;;;15.00;10.25;;;9.20;99.90;;;;;;12127597;28;20621;-79
2021/05/23 06:19:40;;;;;;;16.73;10.23;;;9.50;99.90;;;;;;12126842;28;20142;-79
2021/05/23 06:25:41;;;;;;;19.38;11.18;;;9.50;99.90;;;;;;12117338;28;20115;-80
2021/05/23 06:31:43;;;;;;;17.45;9.98;;;9.50;99.90;;;;;;12129917;28;20333;-80
2021/05/23 06:37:45;;;;;;;18.90;10.20;;;9.50;99.90;;;;;;12139394;28;20124;-80
2021/05/23 06:43:47;;;;;;;15.98;9.63;;;9.50;99.90;;;;;;12138845;28;20151;-80
2021/05/23 06:49:49;;;;;;;13.93;8.88;;;9.70;99.90;;;;;;12115465;28;20117;-80
2021/05/23 06:55:51;;;;;;;11.85;8.50;;;9.80;99.90;;;;;;12124320;28;20068;-80
2021/05/23 07:01:53;;;;;;;18.17;8.90;;;9.70;99.90;;;;;;12136364;28;20636;-81
2021/05/23 07:07:55;;;;;;;12.95;8.82;;;9.60;99.90;;;;;;12132152;28;20087;-81
2021/05/23 07:13:57;;;;;;;13.73;7.97;;;9.70;99.90;;;;;;12126421;28;20050;-80
2021/05/23 07:19:59;;;;;;;16.52;8.80;;;9.70;99.90;;;;;;12118750;28;20401;-81
2021/05/23 07:26:01;;;;;;;11.57;7.40;;;9.80;99.90;;;;;;12129229;28;20129;-81
2021/05/23 07:32:03;;;;;;;13.77;6.60;;;9.70;99.90;;;;;;12116689;28;20417;-81
2021/05/23 07:38:05;;;;;;;9.48;6.20;;;10.40;99.90;;;;;;12141318;28;20484;-81
2021/05/23 07:44:07;;;;;;;10.05;5.90;;;10.10;99.90;;;;;;12121851;28;20038;-80
2021/05/23 07:50:10;;;;;;;8.48;5.55;;;9.90;99.90;;;;;;12116828;28;20059;-81
2021/05/23 07:56:12;;;;;;;8.65;6.20;;;9.90;99.90;;;;;;12130283;28;20815;-81
2021/05/23 08:02:13;;;;;;;12.00;5.70;;;10.30;99.90;;;;;;12116340;28;20137;-81
2021/05/23 08:08:15;;;;;;;7.80;4.68;;;10.70;99.90;;;;;;12118054;28;20053;-79
2021/05/23 08:14:17;;;;;;;6.70;4.20;;;11.00;99.90;;;;;;12114106;28;20068;-81
2021/05/23 08:20:21;;;;;;;5.43;3.67;;;11.50;99.90;;;;;;12111078;28;20057;-80
2021/05/23 08:26:23;;;;;;;5.63;3.67;;;11.60;99.90;;;;;;12135763;28;20059;-81
2021/05/23 08:32:26;;;;;;;6.10;4.53;;;11.10;99.90;;;;;;12119288;28;20052;-81
2021/05/23 08:38:29;;;;;;;6.43;4.90;;;10.80;99.90;;;;;;12131384;28;20066;-79
2021/05/23 08:44:34;;;;;;;8.02;5.40;;;10.60;99.90;;;;;;12120663;28;20076;-80
2021/05/23 08:50:36;;;;;;;7.43;6.03;;;10.50;99.90;;;;;;12122648;28;20370;-81
2021/05/23 08:56:38;;;;;;;7.60;5.40;;;10.60;99.90;;;;;;12137531;28;20057;-81
2021/05/23 09:02:57;;;;;;;7.53;5.55;;;10.80;99.90;;;;;;12122620;28;20160;-80
2021/05/23 09:09:07;;;;;;;5.55;4.82;;;10.60;99.90;;;;;;12124133;28;20586;-80
2021/05/23 09:15:13;;;;;;;6.93;3.90;;;10.80;99.90;;;;;;12131203;28;20048;-79
2021/05/23 09:21:28;;;;;;;6.30;4.30;;;10.80;99.90;;;;;;12122516;28;20049;-80
2021/05/23 09:27:33;;;;;;;9.18;5.57;;;10.70;99.90;;;;;;12136231;28;20873;-80
2021/05/23 09:33:41;;;;;;;7.75;5.97;;;10.60;99.90;;;;;;12128426;28;20144;-80
2021/05/23 09:39:44;;;;;;;7.32;6.07;;;10.30;99.90;;;;;;12127803;28;20382;-83
2021/05/23 09:45:54;;;;;;;8.55;6.30;;;10.00;99.90;;;;;;12150227;28;20048;-83
2021/05/23 09:52:01;;;;;;;7.72;5.15;;;9.90;99.90;;;;;;12124470;28;20059;-81
2021/05/23 09:58:03;;;;;;;8.00;5.25;;;9.90;99.90;;;;;;12128618;28;20386;-83
2021/05/23 10:04:15;;;;;;;7.70;5.90;;;10.00;99.90;;;;;;12136386;28;20081;-85
2021/05/23 10:10:18;;;;;;;7.53;6.03;;;10.00;99.90;;;;;;12147134;28;20103;-84
2021/05/23 10:16:21;;;;;;;3.88;1.70;;;10.40;99.90;;;;;;12137192;28;20049;-84
2021/05/23 10:22:23;;;;;;;3.38;2.33;;;10.20;99.90;;;;;;12135288;28;20573;-85
2021/05/23 10:28:26;;;;;;;6.85;2.70;;;10.20;99.90;;;;;;12124611;28;20415;-83
2021/05/23 10:34:48;;;;;;;5.70;2.90;;;9.80;99.90;;;;;;12157865;28;20526;-82
2021/05/23 10:40:59;;;;;;;5.72;3.65;;;10.00;99.90;;;;;;12117215;28;20053;-81
2021/05/23 10:47:16;;;;;;;9.80;5.20;;;9.80;99.90;;;;;;12135809;28;20099;-82
2021/05/23 10:53:17;;;;;;;9.25;6.20;;;9.50;99.90;;;;;;12133510;28;20169;-81
2021/05/23 10:59:28;;;;;;;10.98;7.68;;;10.00;99.90;;;;;;12128392;28;20144;-81
2021/05/23 11:05:30;;;;;;;12.48;7.47;;;10.90;99.90;;;;;;12150487;28;20383;-80
2021/05/23 11:11:32;;;;;;;10.52;7.07;;;11.30;99.90;;;;;;12139071;28;20140;-80
2021/05/23 11:17:35;;;;;;;10.20;6.72;;;10.80;99.90;;;;;;12118680;28;20121;-82
2021/05/23 11:23:56;;;;;;;11.50;7.50;;;10.90;99.90;;;;;;12148261;28;20313;-81
2021/05/23 11:29:58;;;;;;;10.32;7.32;;;10.80;99.90;;;;;;12116469;28;20056;-82
2021/05/23 11:36:00;;;;;;;12.35;7.22;;;11.50;99.90;;;;;;12127004;28;20552;-83
2021/05/23 11:42:03;;;;;;;12.63;7.57;;;11.80;99.90;;;;;;12128475;28;20048;-81
2021/05/23 11:48:07;;;;;;;11.63;6.10;;;12.20;99.90;;;;;;12130155;28;20108;-83
2021/05/23 11:54:09;;;;;;;9.90;3.83;;;13.60;99.90;;;;;;12113916;28;20064;-84
2021/05/23 12:00:22;;;;;;;9.85;3.47;;;13.80;99.90;;;;;;12124494;28;20078;-82
2021/05/23 12:06:25;;;;;;;9.23;2.85;;;14.40;99.90;;;;;;12130698;28;20108;-83
2021/05/23 12:12:26;;;;;;;7.38;2.30;;;13.70;99.90;;;;;;12127229;28;20061;-82
2021/05/23 12:18:46;;;;;;;6.13;1.60;;;14.40;99.90;;;;;;12134537;28;20966;-84
2021/05/23 12:24:51;;;;;;;10.75;1.40;;;14.90;99.90;;;;;;12145060;28;20129;-83
2021/05/23 12:31:00;;;;;;;5.70;1.25;;;14.80;99.90;;;;;;12132476;28;20664;-83
2021/05/23 12:37:02;;;;;;;7.93;1.40;;;13.50;99.90;;;;;;12136362;28;20535;-83
2021/05/23 12:43:13;;;;;;;4.53;1.48;;;13.50;99.90;;;;;;12135769;28;20041;-82
2021/05/23 12:49:25;;;;;;;3.75;1.25;;;13.70;99.90;;;;;;12150442;28;20057;-83
2021/05/23 12:55:29;;;;;;;6.28;1.17;;;13.60;99.90;;;;;;12150555;28;20089;-84
2021/05/23 13:01:43;;;;;;;3.60;1.67;;;13.60;99.90;;;;;;12128794;28;20084;-83
2021/05/23 13:07:45;;;;;;;3.30;1.00;;;15.10;99.90;;;;;;12159579;28;20379;-84
2021/05/23 13:13:47;;;;;;;4.43;1.08;;;15.20;99.90;;;;;;12142398;28;20044;-83
2021/05/23 13:20:05;;;;;;;4.75;1.98;;;16.00;99.90;;;;;;12148161;28;20079;-82
2021/05/23 13:26:13;;;;;;;4.07;1.08;;;15.60;99.90;;;;;;12150222;28;20084;-83
2021/05/23 13:32:16;;;;;;;4.50;1.00;;;15.70;99.90;;;;;;12135983;28;20053;-82
2021/05/23 13:38:18;;;;;;;4.83;1.50;;;16.60;99.90;;;;;;12133922;28;20085;-82
2021/05/23 13:44:20;;;;;;;3.22;1.58;;;16.10;99.90;;;;;;12122926;28;20107;-83
2021/05/23 13:50:22;;;;;;;3.72;1.23;;;14.70;99.90;;;;;;12126589;28;20159;-82
2021/05/23 13:56:24;;;;;;;5.80;1.30;;;14.50;99.90;;;;;;12115037;28;20072;-81
2021/05/23 14:02:26;;;;;;;6.60;1.63;;;15.00;99.90;;;;;;12131129;28;20053;-83
2021/05/23 14:08:31;;;;;;;7.80;1.92;;;14.60;99.90;;;;;;12120215;28;20061;-83
2021/05/23 14:14:33;;;;;;;4.32;1.33;;;14.20;99.90;;;;;;12113077;28;20100;-82
2021/05/23 14:20:35;;;;;;;4.28;1.10;;;15.40;99.90;;;;;;12130162;28;20043;-84
2021/05/23 14:26:38;;;;;;;5.57;1.40;;;15.40;99.90;;;;;;12126590;28;20085;-81
2021/05/23 14:32:39;;;;;;;5.45;1.45;;;14.80;99.90;;;;;;12131959;28;20100;-84
2021/05/23 14:38:42;;;;;;;4.63;1.25;;;14.40;99.90;;;;;;12130943;28;20140;-83
2021/05/23 14:44:44;;;;;;;2.70;0.95;;;15.20;99.90;;;;;;12115380;28;20631;-83
2021/05/23 14:50:46;;;;;;;5.82;1.20;;;15.00;99.90;;;;;;12119732;28;20046;-81
2021/05/23 14:56:48;;;;;;;5.68;1.42;;;15.60;99.90;;;;;;12111637;28;20145;-82
2021/05/23 15:02:51;;;;;;;5.28;1.15;;;15.70;99.90;;;;;;12160001;28;20149;-83
2021/05/23 15:08:53;;;;;;;4.20;1.23;;;16.00;99.90;;;;;;12132330;28;20116;-83
2021/05/23 15:14:54;;;;;;;4.70;1.23;;;15.90;99.90;;;;;;12139461;28;20045;-83
2021/05/23 15:20:57;;;;;;;3.80;1.10;;;15.80;99.90;;;;;;12167319;28;20135;-84
2021/05/23 15:27:04;;;;;;;4.93;1.17;;;15.70;99.90;;;;;;12115538;28;20148;-82
2021/05/23 15:33:07;;;;;;;4.93;1.02;;;15.80;99.90;;;;;;12134090;28;20144;-81
2021/05/23 15:39:09;;;;;;;5.93;1.20;;;15.70;99.90;;;;;;12121167;28;20160;-83
2021/05/23 15:45:12;;;;;;;5.53;1.20;;;15.30;99.90;;;;;;12130950;28;20494;-82
2021/05/23 15:51:14;;;;;;;5.60;1.15;;;15.20;99.90;;;;;;12119001;28;20071;-83
2021/05/23 15:57:16;;;;;;;5.88;1.38;;;15.30;99.90;;;;;;12097320;28;20191;-83
2021/05/23 16:03:18;;;;;;;5.38;1.15;;;15.50;99.90;;;;;;12122594;28;20552;-83
2021/05/23 16:09:20;;;;;;;3.85;1.30;;;15.30;99.90;;;;;;12131136;28;20053;-83
2021/05/23 16:15:22;;;;;;;4.13;1.13;;;15.90;99.90;;;;;;12136347;28;20116;-82
2021/05/23 16:21:26;;;;;;;4.68;1.38;;;16.30;99.90;;;;;;12139089;28;20131;-82
2021/05/23 16:27:28;;;;;;;3.78;1.30;;;16.00;99.90;;;;;;12122761;28;20088;-81
2021/05/23 16:33:30;;;;;;;3.95;1.23;;;15.40;99.90;;;;;;12119945;28;20049;-82
2021/05/23 16:39:33;;;;;;;2.35;1.02;;;15.40;99.90;;;;;;12137043;28;20053;-81
2021/05/23 16:45:34;;;;;;;3.10;0.80;;;15.70;99.90;;;;;;12129348;28;20144;-81
2021/05/23 16:51:37;;;;;;;4.80;1.38;;;16.00;99.90;;;;;;12121426;28;20049;-81
2021/05/23 16:57:38;;;;;;;3.58;1.20;;;15.90;99.90;;;;;;12121093;28;20324;-81
2021/05/23 17:03:40;;;;;;;6.47;1.23;;;15.10;99.90;;;;;;12122890;28;20057;-82
2021/05/23 17:09:42;;;;;;;4.95;1.25;;;14.80;99.90;;;;;;12118746;28;20056;-83
2021/05/23 17:15:43;;;;;;;4.32;0.82;;;14.60;99.90;;;;;;12158239;28;20507;-82
2021/05/23 17:21:45;;;;;;;4.45;1.20;;;14.60;99.90;;;;;;12106184;28;20509;-82
2021/05/23 17:27:48;;;;;;;4.57;1.13;;;14.40;99.90;;;;;;12118925;28;20118;-82
2021/05/23 17:33:50;;;;;;;4.20;1.33;;;14.60;99.90;;;;;;12122066;28;20140;-81
2021/05/23 17:39:52;;;;;;;5.20;1.20;;;14.40;99.90;;;;;;12145710;28;20120;-82
2021/05/23 17:45:54;;;;;;;4.53;1.20;;;14.20;99.90;;;;;;12150511;28;20046;-81
2021/05/23 17:51:56;;;;;;;3.13;1.13;;;14.90;99.90;;;;;;12120482;28;20139;-82
2021/05/23 17:58:01;;;;;;;4.47;1.10;;;15.50;99.90;;;;;;12107847;28;20081;-82
2021/05/23 18:04:03;;;;;;;5.38;1.15;;;15.20;99.90;;;;;;12116953;28;20045;-81
2021/05/23 18:10:06;;;;;;;4.82;1.33;;;14.90;99.90;;;;;;12127559;28;20581;-81
2021/05/23 18:16:08;;;;;;;4.72;1.25;;;14.30;99.90;;;;;;12106615;28;20126;-82
2021/05/23 18:22:10;;;;;;;4.50;1.15;;;14.10;99.90;;;;;;12122320;28;20109;-81
2021/05/23 18:28:12;;;;;;;10.15;1.40;;;13.60;99.90;;;;;;12128897;28;20128;-82
2021/05/23 18:34:15;;;;;;;6.13;1.65;;;13.30;99.90;;;;;;12133386;28;20053;-82
2021/05/23 18:40:22;;;;;;;6.55;1.70;;;13.00;99.90;;;;;;12149338;28;20406;-82
2021/05/23 18:46:29;;;;;;;8.00;2.35;;;12.80;99.90;;;;;;12129194;28;20481;-81
2021/05/23 18:52:31;;;;;;;4.13;1.20;;;12.60;99.90;;;;;;12143696;28;20148;-81
2021/05/23 18:58:34;;;;;;;3.85;1.20;;;12.30;99.90;;;;;;12128301;28;20060;-81
2021/05/23 19:04:36;;;;;;;6.97;1.10;;;12.20;99.90;;;;;;12125200;28;20579;-81
2021/05/23 19:10:38;;;;;;;4.88;1.30;;;12.00;99.90;;;;;;12129708;28;20489;-81
2021/05/23 19:16:40;;;;;;;5.78;1.40;;;11.80;99.90;;;;;;12147709;28;20084;-82
2021/05/23 19:22:42;;;;;;;3.83;1.23;;;11.70;99.90;;;;;;12139273;28;20056;-81
2021/05/23 19:28:45;;;;;;;6.22;1.50;;;11.60;99.90;;;;;;12131823;28;20067;-81
2021/05/23 19:34:47;;;;;;;3.55;1.33;;;11.40;99.90;;;;;;12126224;28;20132;-81
2021/05/23 19:40:49;;;;;;;2.83;1.02;;;11.40;99.90;;;;;;12132597;28;20059;-81
2021/05/23 19:46:51;;;;;;;5.13;1.15;;;11.10;99.90;;;;;;12130504;28;20107;-81
2021/05/23 19:52:53;;;;;;;4.78;0.88;;;10.90;99.90;;;;;;12120467;28;20576;-82
2021/05/23 19:58:55;;;;;;;5.72;1.27;;;10.90;99.90;;;;;;12129356;28;20053;-81
2021/05/23 20:04:59;;;;;;;6.35;1.98;;;11.00;99.90;;;;;;12142362;28;20076;-81
2021/05/23 20:11:02;;;;;;;5.13;1.48;;;11.00;99.90;;;;;;12125708;28;20046;-82
2021/05/23 20:17:04;;;;;;;3.65;1.08;;;10.80;99.90;;;;;;12126477;28;20140;-82
2021/05/23 20:23:08;;;;;;;3.53;1.15;;;10.90;99.90;;;;;;12145677;28;20080;-81
2021/05/23 20:29:10;;;;;;;4.57;1.50;;;10.80;99.90;;;;;;12111050;28;20077;-83
2021/05/23 20:35:13;;;;;;;3.25;1.30;;;10.80;99.90;;;;;;12117958;28;20136;-82
2021/05/23 20:41:15;;;;;;;4.20;1.50;;;10.80;99.90;;;;;;12107300;28;20049;-81
2021/05/23 20:47:17;;;;;;;6.63;1.77;;;10.80;99.90;;;;;;12140632;28;20057;-82
2021/05/23 20:53:19;;;;;;;7.82;1.60;;;10.80;99.90;;;;;;12132789;28;20114;-83
2021/05/23 20:59:21;;;;;;;5.45;1.25;;;10.70;99.90;;;;;;12128391;28;20055;-82
2021/05/23 21:05:23;;;;;;;4.32;1.40;;;10.80;99.90;;;;;;12136134;28;20183;-82
2021/05/23 21:11:25;;;;;;;4.90;1.35;;;10.90;99.90;;;;;;12116850;28;20141;-82
2021/05/23 21:17:27;;;;;;;7.05;1.45;;;10.90;99.90;;;;;;12138020;28;20148;-82
2021/05/23 21:23:29;;;;;;;3.75;1.25;;;10.90;99.90;;;;;;12147687;28;20050;-81
2021/05/23 21:29:31;;;;;;;4.30;1.20;;;11.00;99.90;;;;;;12149777;28;20147;-82
2021/05/23 21:35:33;;;;;;;8.95;1.30;;;10.90;99.90;;;;;;12144803;28;20389;-82
2021/05/23 21:41:35;;;;;;;5.25;1.30;;;10.90;99.90;;;;;;12150524;28;20129;-82
2021/05/23 21:47:38;;;;;;;5.90;1.25;;;10.80;99.90;;;;;;12131872;28;20064;-82
2021/05/23 21:54:00;;;;;;;4.97;1.33;;;10.70;99.90;;;;;;12118113;28;20560;-81
2021/05/23 22:00:08;;;;;;;4.00;1.15;;;10.50;99.90;;;;;;12119917;28;20057;-82
2021/05/23 22:06:12;;;;;;;3.75;1.38;;;10.40;99.90;;;;;;12109575;28;20127;-83
2021/05/23 22:12:14;;;;;;;2.80;1.23;;;10.20;99.90;;;;;;12138891;28;20049;-81
2021/05/23 22:18:16;;;;;;;4.50;1.20;;;10.30;99.90;;;;;;12131711;28;20069;-81
2021/05/23 22:24:18;;;;;;;4.45;1.10;;;10.10;99.90;;;;;;12133148;28;20137;-81
2021/05/23 22:30:20;;;;;;;3.30;0.93;;;10.10;99.90;;;;;;12142471;28;20083;-82
2021/05/23 22:36:24;;;;;;;3.70;1.10;;;10.10;99.90;;;;;;12125343;28;20110;-83
2021/05/23 22:42:25;;;;;;;4.15;1.10;;;10.10;99.90;;;;;;12113886;28;20138;-82
2021/05/23 22:48:27;;;;;;;4.57;1.00;;;10.20;99.90;;;;;;12143002;28;20082;-82
2021/05/23 22:54:29;;;;;;;6.75;1.27;;;10.20;99.90;;;;;;12130451;28;20081;-82
2021/05/23 23:00:42;;;;;;;3.55;1.20;;;10.20;99.90;;;;;;12139641;28;20053;-81
2021/05/23 23:06:45;;;;;;;5.43;1.02;;;10.20;99.90;;;;;;12147032;28;20049;-81
2021/05/23 23:12:47;;;;;;;3.60;1.15;;;10.20;99.90;;;;;;12123692;28;20137;-80
2021/05/23 23:18:50;;;;;;;3.35;1.08;;;10.30;99.90;;;;;;12131347;28;20520;-81
2021/05/23 23:24:52;;;;;;;2.83;0.80;;;10.40;99.90;;;;;;12131711;28;20170;-81
2021/05/23 23:30:54;;;;;;;7.07;1.02;;;10.20;99.90;;;;;;12116513;28;20526;-82
2021/05/23 23:36:55;;;;;;;3.38;1.05;;;10.20;99.90;;;;;;12121285;28;20141;-81
2021/05/23 23:42:57;;;;;;;2.95;1.00;;;10.30;99.90;;;;;;12107251;28;20651;-80
2021/05/23 23:48:59;;;;;;;3.47;1.15;;;10.30;99.90;;;;;;12121133;28;20520;-80
2021/05/23 23:55:07;;;;;;;2.38;1.00;;;10.20;99.90;;;;;;12110180;28;20608;-81
